Time;durP1;ratioP1;P1;durP2;ratioP2;P2;SDS_P1;SDS_P2;PMS_P1;PMS_P2;Temp;Humidity;BMP_temperature;BMP_pressure;BME280_temperature;BME280_humidity;BME280_pressure;Samples;Min_cycle;Max_cycle;Signal;HPM_P1;HPM_P2
2023/01/09 00:01:41;;;;;;;7.63;5.73;;;5.20;99.90;;;;;;4909522;29;20568;-91
2023/01/09 00:04:09;;;;;;;5.67;5.07;;;5.20;99.90;;;;;;4910903;29;21049;-93
2023/01/09 00:06:36;;;;;;;6.20;5.60;;;5.30;99.90;;;;;;4912061;29;20974;-93
2023/01/09 00:09:04;;;;;;;6.13;5.10;;;5.40;99.90;;;;;;4903671;29;20464;-91
2023/01/09 00:11:30;;;;;;;7.07;5.20;;;5.40;99.90;;;;;;4898024;29;20453;-92
2023/01/09 00:13:57;;;;;;;6.90;5.57;;;5.20;99.90;;;;;;4897429;29;20465;-94
2023/01/09 00:16:24;;;;;;;6.60;5.30;;;5.10;99.90;;;;;;4898719;29;21008;-91
2023/01/09 00:18:52;;;;;;;7.10;5.83;;;5.10;99.90;;;;;;4898376;29;20481;-93
2023/01/09 00:21:20;;;;;;;6.30;4.93;;;5.10;99.90;;;;;;4899518;29;20461;-94
2023/01/09 00:23:46;;;;;;;6.17;4.47;;;5.10;99.90;;;;;;4898496;29;20454;-79
2023/01/09 00:26:16;;;;;;;8.27;4.90;;;5.10;99.90;;;;;;4901946;29;20815;-82
2023/01/09 00:28:44;;;;;;;8.67;5.47;;;5.20;99.90;;;;;;4902128;29;20817;-78
2023/01/09 00:31:11;;;;;;;11.20;5.13;;;5.20;99.90;;;;;;4895734;29;20449;-81
2023/01/09 00:33:41;;;;;;;6.60;5.90;;;5.20;99.90;;;;;;4896391;29;20454;-83
2023/01/09 00:36:08;;;;;;;8.33;5.27;;;5.20;99.90;;;;;;4894723;29;20552;-81
2023/01/09 00:38:36;;;;;;;8.00;5.53;;;5.20;99.90;;;;;;4896225;29;21094;-80
2023/01/09 00:41:04;;;;;;;5.50;4.87;;;5.20;99.90;;;;;;4895532;29;20508;-79
2023/01/09 00:43:35;;;;;;;7.00;5.00;;;5.20;99.90;;;;;;4895974;29;20468;-80
2023/01/09 00:46:05;;;;;;;5.43;4.90;;;5.10;99.90;;;;;;4895871;29;20473;-78
2023/01/09 00:48:33;;;;;;;6.93;6.13;;;5.20;99.90;;;;;;4888297;29;20478;-79
2023/01/09 00:51:00;;;;;;;7.70;5.50;;;5.10;99.90;;;;;;4876284;29;20854;-80
2023/01/09 00:53:31;;;;;;;7.60;5.57;;;5.10;99.90;;;;;;4877454;29;20458;-88
2023/01/09 00:56:00;;;;;;;7.70;6.10;;;5.00;99.90;;;;;;4877421;29;21038;-82
2023/01/09 00:58:28;;;;;;;5.90;4.47;;;5.00;99.90;;;;;;4877647;29;20458;-86
2023/01/09 01:00:56;;;;;;;5.93;5.33;;;5.00;99.90;;;;;;4876903;29;20490;-80
2023/01/09 01:03:22;;;;;;;5.60;4.80;;;5.00;99.90;;;;;;4877302;29;20482;-86
2023/01/09 01:08:33;;;;;;;7.03;5.20;;;5.10;99.90;;;;;;4876424;29;20481;-82
2023/01/09 01:11:04;;;;;;;5.53;4.93;;;5.00;99.90;;;;;;4882292;29;20447;-84
2023/01/09 01:13:31;;;;;;;5.40;4.80;;;5.10;99.90;;;;;;4887838;29;20443;-80
2023/01/09 01:15:59;;;;;;;6.27;4.60;;;5.20;99.90;;;;;;4887139;29;20469;-79
2023/01/09 01:18:26;;;;;;;6.10;4.33;;;5.30;99.90;;;;;;4886636;29;20459;-79
2023/01/09 01:20:53;;;;;;;5.57;4.70;;;5.20;99.90;;;;;;4883504;29;20509;-81
2023/01/09 01:23:19;;;;;;;7.70;6.00;;;5.20;99.90;;;;;;4881277;29;20462;-84
2023/01/09 01:25:46;;;;;;;7.93;5.10;;;5.20;99.90;;;;;;4875717;29;20466;-81
2023/01/09 01:28:13;;;;;;;7.07;5.03;;;5.30;99.90;;;;;;4878018;29;20493;-81
2023/01/09 01:30:42;;;;;;;6.67;4.93;;;5.30;99.90;;;;;;4879505;29;20577;-79
2023/01/09 01:33:11;;;;;;;7.23;5.67;;;5.30;99.90;;;;;;4877671;29;20463;-77
2023/01/09 01:35:38;;;;;;;7.90;5.27;;;5.20;99.90;;;;;;4877677;29;20455;-78
2023/01/09 01:38:05;;;;;;;14.00;5.57;;;5.20;99.90;;;;;;4876968;29;20470;-77
2023/01/09 01:40:33;;;;;;;9.77;4.73;;;5.20;99.90;;;;;;4876864;29;20838;-77
2023/01/09 01:43:00;;;;;;;4.60;4.20;;;5.30;99.90;;;;;;4880655;29;20538;-78
2023/01/09 01:45:28;;;;;;;7.00;6.07;;;5.50;99.90;;;;;;4878921;29;20462;-78
2023/01/09 01:48:01;;;;;;;9.03;4.77;;;5.30;99.90;;;;;;4879824;29;20478;-76
2023/01/09 01:50:35;;;;;;;7.30;5.03;;;5.30;99.90;;;;;;4882967;29;20493;-77
2023/01/09 01:53:06;;;;;;;5.70;4.40;;;5.30;99.90;;;;;;4881883;29;20477;-77
2023/01/09 01:55:37;;;;;;;6.80;5.50;;;5.30;99.90;;;;;;4883481;29;20465;-77
2023/01/09 01:58:07;;;;;;;5.50;4.37;;;5.30;99.90;;;;;;4882978;29;20471;-77
2023/01/09 02:00:38;;;;;;;6.47;5.80;;;5.20;99.90;;;;;;4881389;29;20516;-77
2023/01/09 02:03:07;;;;;;;4.30;4.00;;;5.20;99.90;;;;;;4875823;29;20454;-77
2023/01/09 02:05:37;;;;;;;7.77;4.80;;;5.20;99.90;;;;;;4875815;29;20454;-78
2023/01/09 02:08:05;;;;;;;5.43;4.70;;;5.20;99.90;;;;;;4876130;29;20825;-77
2023/01/09 02:10:33;;;;;;;6.43;4.70;;;5.20;99.90;;;;;;4876244;29;20485;-76
2023/01/09 02:13:00;;;;;;;7.60;4.67;;;5.20;99.90;;;;;;4875003;29;20463;-78
2023/01/09 02:15:34;;;;;;;4.97;4.47;;;5.20;99.90;;;;;;4876512;29;20533;-80
2023/01/09 02:18:19;;;;;;;5.53;4.83;;;5.20;99.90;;;;;;4878219;29;20819;-81
2023/01/09 02:21:08;;;;;;;6.80;4.73;;;5.20;99.90;;;;;;4881353;29;20498;-80
2023/01/09 02:24:07;;;;;;;5.10;4.57;;;5.40;99.90;;;;;;4884789;29;21062;-76
2023/01/09 02:26:51;;;;;;;6.00;5.50;;;5.40;99.90;;;;;;4882941;29;20950;-79
2023/01/09 02:29:46;;;;;;;5.47;4.27;;;5.50;99.90;;;;;;4884360;29;20470;-78
2023/01/09 02:32:26;;;;;;;6.27;4.70;;;5.70;99.90;;;;;;4867349;29;20478;-78
2023/01/09 02:35:05;;;;;;;4.33;3.87;;;5.70;99.90;;;;;;4881967;29;20462;-78
2023/01/09 02:37:42;;;;;;;6.37;4.30;;;5.70;99.90;;;;;;4879905;29;20463;-79
2023/01/09 02:40:19;;;;;;;7.00;4.10;;;5.60;99.90;;;;;;4879715;29;20580;-81
2023/01/09 02:42:47;;;;;;;6.40;4.37;;;5.50;99.90;;;;;;4879849;29;20980;-78
2023/01/09 02:45:13;;;;;;;5.00;4.50;;;5.50;99.90;;;;;;4881424;29;20515;-78
2023/01/09 02:47:44;;;;;;;5.73;4.00;;;5.60;99.90;;;;;;4877603;29;20470;-81
2023/01/09 02:50:17;;;;;;;4.70;3.77;;;5.60;99.90;;;;;;4881174;29;20525;-81
2023/01/09 02:53:19;;;;;;;5.23;3.83;;;5.40;99.90;;;;;;4890312;29;20691;-83
2023/01/09 02:56:06;;;;;;;3.60;3.30;;;5.40;99.90;;;;;;4891357;29;20561;-79
2023/01/09 02:58:50;;;;;;;3.97;3.57;;;5.30;99.90;;;;;;4889737;29;20450;-79
2023/01/09 03:01:27;;;;;;;4.43;3.83;;;5.30;99.90;;;;;;4882891;29;20486;-77
2023/01/09 03:04:02;;;;;;;3.67;3.37;;;5.30;99.90;;;;;;4887561;29;20565;-84
2023/01/09 03:06:37;;;;;;;4.37;3.70;;;5.10;99.90;;;;;;4890539;29;20522;-78
2023/01/09 03:09:08;;;;;;;5.60;3.70;;;5.10;99.90;;;;;;4868708;29;20443;-77
2023/01/09 03:11:41;;;;;;;5.17;4.07;;;5.20;99.90;;;;;;4873813;29;20501;-77
2023/01/09 03:14:12;;;;;;;8.10;6.30;;;5.30;99.90;;;;;;4878998;29;20550;-78
2023/01/09 03:16:39;;;;;;;4.87;3.90;;;5.20;99.90;;;;;;4884427;29;20458;-77
2023/01/09 03:19:12;;;;;;;5.43;4.10;;;5.20;99.90;;;;;;4876269;29;20506;-77
2023/01/09 03:21:40;;;;;;;5.73;3.60;;;5.20;99.90;;;;;;4874215;29;20498;-77
2023/01/09 03:24:07;;;;;;;7.03;3.90;;;5.20;99.90;;;;;;4874460;29;20519;-77
2023/01/09 03:26:35;;;;;;;8.07;5.20;;;5.30;99.90;;;;;;4873938;29;20462;-77
2023/01/09 03:29:02;;;;;;;5.43;3.90;;;5.30;99.90;;;;;;4873162;29;20470;-77
2023/01/09 03:31:28;;;;;;;4.20;3.80;;;5.30;99.90;;;;;;4874001;29;20994;-77
2023/01/09 03:33:55;;;;;;;5.20;4.20;;;5.20;99.90;;;;;;4874720;29;20450;-77
2023/01/09 03:36:24;;;;;;;6.97;4.80;;;5.10;99.90;;;;;;4878001;29;20450;-77
2023/01/09 03:38:51;;;;;;;5.53;5.03;;;5.00;99.90;;;;;;4875434;29;20974;-77
2023/01/09 03:41:19;;;;;;;4.40;4.00;;;5.00;99.90;;;;;;4874994;29;20501;-79
2023/01/09 03:43:47;;;;;;;4.77;4.30;;;5.00;99.90;;;;;;4859155;29;20477;-78
2023/01/09 03:46:14;;;;;;;7.30;4.87;;;5.00;99.90;;;;;;4864579;29;20496;-78
2023/01/09 03:48:41;;;;;;;5.03;4.53;;;5.00;99.90;;;;;;4875564;29;20518;-78
2023/01/09 03:51:07;;;;;;;5.53;3.70;;;5.00;99.90;;;;;;4878433;29;20488;-78
2023/01/09 03:53:36;;;;;;;5.40;3.80;;;5.10;99.90;;;;;;4886524;29;20450;-79
2023/01/09 03:56:03;;;;;;;5.93;5.33;;;5.20;99.90;;;;;;4885311;29;20463;-77
2023/01/09 03:58:30;;;;;;;5.90;4.50;;;5.20;99.90;;;;;;4887657;29;20455;-80
2023/01/09 04:01:00;;;;;;;5.73;4.60;;;5.10;99.90;;;;;;4884415;29;20566;-81
2023/01/09 04:03:27;;;;;;;5.83;4.60;;;5.30;99.90;;;;;;4877669;29;20478;-83
2023/01/09 04:05:54;;;;;;;5.03;3.90;;;5.40;99.90;;;;;;4878299;29;20463;-79
2023/01/09 04:08:21;;;;;;;4.10;3.40;;;5.30;99.90;;;;;;4878161;29;20542;-79
2023/01/09 04:10:50;;;;;;;8.00;3.90;;;5.40;99.90;;;;;;4878003;29;20454;-77
2023/01/09 04:13:17;;;;;;;3.23;2.60;;;5.60;99.90;;;;;;4877457;29;20471;-79
2023/01/09 04:15:44;;;;;;;4.07;2.30;;;5.70;99.90;;;;;;4877738;29;20456;-78
2023/01/09 04:18:11;;;;;;;3.30;3.00;;;5.60;99.90;;;;;;4877761;29;20463;-82
2023/01/09 04:20:38;;;;;;;3.70;3.23;;;5.70;99.90;;;;;;4877347;29;20486;-77
2023/01/09 04:23:04;;;;;;;3.00;2.70;;;5.70;99.90;;;;;;4885155;29;20545;-76
2023/01/09 04:25:31;;;;;;;2.57;2.37;;;5.70;99.90;;;;;;4882080;29;20462;-78
2023/01/09 04:27:59;;;;;;;2.40;2.20;;;5.80;99.90;;;;;;4880414;29;20550;-79
2023/01/09 04:30:26;;;;;;;2.57;2.37;;;5.80;99.90;;;;;;4878545;29;20565;-78
2023/01/09 04:32:53;;;;;;;1.90;1.70;;;5.90;99.90;;;;;;4879216;29;20951;-80
2023/01/09 04:35:20;;;;;;;3.50;1.60;;;5.90;99.90;;;;;;4880091;29;20462;-79
2023/01/09 04:37:46;;;;;;;2.33;1.70;;;6.00;99.90;;;;;;4878459;29;20483;-79
2023/01/09 04:40:17;;;;;;;4.90;2.80;;;6.10;99.90;;;;;;4880323;29;20449;-80
2023/01/09 04:42:44;;;;;;;2.07;1.23;;;6.10;99.90;;;;;;4880548;29;20458;-79
2023/01/09 04:45:14;;;;;;;2.53;1.47;;;6.20;99.90;;;;;;4879825;29;20462;-77
2023/01/09 04:47:41;;;;;;;1.73;1.00;;;6.40;99.90;;;;;;4877355;29;20959;-78
2023/01/09 04:50:09;;;;;;;2.90;1.10;;;6.60;99.90;;;;;;4877297;29;20497;-78
2023/01/09 04:52:36;;;;;;;1.30;1.20;;;6.70;99.90;;;;;;4876290;29;20502;-78
2023/01/09 04:55:03;;;;;;;1.50;1.20;;;6.70;99.90;;;;;;4877273;29;20451;-78
2023/01/09 04:57:30;;;;;;;1.20;1.10;;;6.70;99.90;;;;;;4866720;29;20467;-77
2023/01/09 04:59:57;;;;;;;1.50;1.40;;;6.70;99.90;;;;;;4858862;29;20460;-77
2023/01/09 05:02:25;;;;;;;1.57;1.30;;;6.80;99.90;;;;;;4874885;29;20508;-78
2023/01/09 05:04:52;;;;;;;1.07;0.97;;;6.80;99.90;;;;;;4876928;29;20561;-81
2023/01/09 05:07:19;;;;;;;1.10;1.00;;;6.90;99.90;;;;;;4876710;29;20772;-79
2023/01/09 05:09:46;;;;;;;1.40;1.10;;;6.90;99.90;;;;;;4875876;29;20479;-77
2023/01/09 05:12:12;;;;;;;1.10;0.80;;;7.10;99.90;;;;;;4870088;29;20933;-77
2023/01/09 05:14:39;;;;;;;1.30;0.80;;;7.00;99.90;;;;;;4877111;29;20891;-79
2023/01/09 05:17:06;;;;;;;0.80;0.70;;;7.00;99.90;;;;;;4876119;29;20457;-77
2023/01/09 05:19:34;;;;;;;1.03;0.80;;;7.10;99.90;;;;;;4876252;29;20828;-78
2023/01/09 05:22:01;;;;;;;1.00;0.73;;;7.20;99.90;;;;;;4875961;29;20505;-81
2023/01/09 05:24:28;;;;;;;1.00;0.70;;;7.20;99.90;;;;;;4876470;29;20459;-78
2023/01/09 05:26:55;;;;;;;1.07;0.77;;;7.10;99.90;;;;;;4875438;29;21049;-77
2023/01/09 05:29:21;;;;;;;1.20;0.70;;;7.10;99.90;;;;;;4876703;29;20530;-76
2023/01/09 05:31:48;;;;;;;0.70;0.60;;;7.10;99.90;;;;;;4875811;29;21017;-78
2023/01/09 05:34:15;;;;;;;0.90;0.80;;;7.10;99.90;;;;;;4876307;29;20462;-78
2023/01/09 05:36:43;;;;;;;0.90;0.77;;;7.10;99.90;;;;;;4876107;29;20551;-77
2023/01/09 05:39:10;;;;;;;0.90;0.73;;;7.10;99.90;;;;;;4876749;29;20542;-83
2023/01/09 05:41:37;;;;;;;1.00;0.80;;;7.00;99.90;;;;;;4875169;29;20490;-80
2023/01/09 05:44:04;;;;;;;0.80;0.70;;;7.00;99.90;;;;;;4869444;29;20790;-79
2023/01/09 05:46:31;;;;;;;0.70;0.60;;;6.90;99.90;;;;;;4864993;29;20470;-79
2023/01/09 05:48:58;;;;;;;0.80;0.67;;;6.90;99.90;;;;;;4864829;29;20467;-78
2023/01/09 05:51:25;;;;;;;0.80;0.80;;;6.90;99.90;;;;;;4866192;29;20482;-82
2023/01/09 05:53:53;;;;;;;0.80;0.70;;;6.80;99.90;;;;;;4865342;29;20841;-77
2023/01/09 05:56:20;;;;;;;0.90;0.70;;;6.90;99.90;;;;;;4868507;29;20474;-77
2023/01/09 05:58:47;;;;;;;1.10;0.70;;;6.80;99.90;;;;;;4867217;29;20824;-76
2023/01/09 06:01:14;;;;;;;0.80;0.60;;;6.80;99.90;;;;;;4868291;29;20486;-77
2023/01/09 06:03:40;;;;;;;1.10;0.70;;;6.80;99.90;;;;;;4868532;29;20548;-78
2023/01/09 06:06:08;;;;;;;0.90;0.70;;;6.80;99.90;;;;;;4867648;29;20455;-75
2023/01/09 06:08:34;;;;;;;2.20;0.90;;;6.80;99.90;;;;;;4867928;29;20951;-77
2023/01/09 06:11:03;;;;;;;1.67;0.70;;;6.80;99.90;;;;;;4869219;29;20465;-82
2023/01/09 06:13:29;;;;;;;0.90;0.70;;;6.70;99.90;;;;;;4866324;29;20498;-83
2023/01/09 06:15:56;;;;;;;1.03;0.70;;;6.70;99.90;;;;;;4865792;29;20475;-84
2023/01/09 06:18:23;;;;;;;0.90;0.70;;;6.60;99.90;;;;;;4864088;29;20969;-82
2023/01/09 06:20:50;;;;;;;0.90;0.70;;;6.60;99.90;;;;;;4867015;29;20482;-81
2023/01/09 06:23:16;;;;;;;0.90;0.70;;;6.60;99.90;;;;;;4866456;29;20455;-81
2023/01/09 06:25:43;;;;;;;0.80;0.63;;;6.70;99.90;;;;;;4863498;29;20534;-82
2023/01/09 06:28:11;;;;;;;0.80;0.70;;;6.60;99.90;;;;;;4870858;29;20459;-77
2023/01/09 06:30:38;;;;;;;1.03;0.60;;;6.60;99.90;;;;;;4878297;29;20498;-84
2023/01/09 06:33:05;;;;;;;0.80;0.70;;;6.70;99.90;;;;;;4862718;29;20464;-78
2023/01/09 06:35:32;;;;;;;0.80;0.60;;;6.60;99.90;;;;;;4858208;29;20459;-77
2023/01/09 06:38:00;;;;;;;1.00;0.70;;;6.60;99.90;;;;;;4857811;29;20497;-77
2023/01/09 06:40:27;;;;;;;0.90;0.77;;;6.50;99.90;;;;;;4856428;29;20535;-81
2023/01/09 06:42:53;;;;;;;0.80;0.63;;;6.50;99.90;;;;;;4856611;29;20492;-79
2023/01/09 06:45:22;;;;;;;0.97;0.80;;;6.40;99.90;;;;;;4856614;29;20467;-77
2023/01/09 06:47:49;;;;;;;0.70;0.60;;;6.40;99.90;;;;;;4856992;29;20455;-78
2023/01/09 06:50:17;;;;;;;0.80;0.70;;;6.30;99.90;;;;;;4871199;29;21034;-77
2023/01/09 06:52:44;;;;;;;0.90;0.70;;;6.30;99.90;;;;;;4872332;29;20470;-78
2023/01/09 06:55:11;;;;;;;0.80;0.70;;;6.30;99.90;;;;;;4874969;29;20522;-81
2023/01/09 06:57:37;;;;;;;0.70;0.60;;;6.20;99.90;;;;;;4875494;29;20462;-79
2023/01/09 07:00:05;;;;;;;0.80;0.60;;;6.20;99.90;;;;;;4875652;29;20459;-79
2023/01/09 07:02:33;;;;;;;0.80;0.60;;;6.20;99.90;;;;;;4876562;29;20496;-79
2023/01/09 07:05:00;;;;;;;1.00;0.77;;;6.20;99.90;;;;;;4874510;29;20459;-76
2023/01/09 07:07:27;;;;;;;0.90;0.70;;;6.20;99.90;;;;;;4869231;29;20530;-77
2023/01/09 07:09:54;;;;;;;1.33;0.80;;;6.20;99.90;;;;;;4857206;29;20830;-77
2023/01/09 07:12:20;;;;;;;0.90;0.63;;;6.10;99.90;;;;;;4865462;29;20462;-78
2023/01/09 07:14:47;;;;;;;0.80;0.60;;;6.10;99.90;;;;;;4864314;29;20542;-79
2023/01/09 07:17:14;;;;;;;0.93;0.70;;;6.10;99.90;;;;;;4865588;29;20973;-78
2023/01/09 07:19:42;;;;;;;0.80;0.70;;;6.10;99.90;;;;;;4865318;29;20461;-79
2023/01/09 07:22:10;;;;;;;0.90;0.60;;;6.10;99.90;;;;;;4862813;29;20741;-79
2023/01/09 07:24:37;;;;;;;0.80;0.70;;;6.10;99.90;;;;;;4866394;29;20506;-78
2023/01/09 07:27:04;;;;;;;0.80;0.80;;;6.10;99.90;;;;;;4867961;29;20994;-77
2023/01/09 07:29:31;;;;;;;0.83;0.80;;;6.10;99.90;;;;;;4873484;29;20462;-81
2023/01/09 07:31:58;;;;;;;0.90;0.70;;;6.10;99.90;;;;;;4866619;29;20500;-77
2023/01/09 07:34:24;;;;;;;1.20;0.70;;;6.10;99.90;;;;;;4871490;29;20955;-77
2023/01/09 07:36:53;;;;;;;0.70;0.60;;;6.00;99.90;;;;;;4872326;29;20459;-81
2023/01/09 07:39:20;;;;;;;0.80;0.60;;;6.00;99.90;;;;;;4873623;29;20530;-76
2023/01/09 07:41:47;;;;;;;0.80;0.70;;;6.00;99.90;;;;;;4872152;29;20586;-79
2023/01/09 07:44:14;;;;;;;0.80;0.60;;;5.90;99.90;;;;;;4878553;29;20545;-79
2023/01/09 07:46:41;;;;;;;0.77;0.67;;;5.90;99.90;;;;;;4876398;29;20535;-85
2023/01/09 07:49:08;;;;;;;1.30;0.70;;;5.80;99.90;;;;;;4876024;29;20467;-79
2023/01/09 07:51:37;;;;;;;1.37;0.67;;;5.80;99.90;;;;;;4873711;29;20737;-79
2023/01/09 07:54:06;;;;;;;0.80;0.60;;;5.70;99.90;;;;;;4873620;29;20455;-79
2023/01/09 07:56:33;;;;;;;0.80;0.77;;;5.60;99.90;;;;;;4871869;29;20603;-80
2023/01/09 07:59:00;;;;;;;0.80;0.80;;;5.40;99.90;;;;;;4859016;29;20530;-87
2023/01/09 08:01:27;;;;;;;1.00;0.70;;;5.40;99.90;;;;;;4886762;29;20489;-83
2023/01/09 08:03:54;;;;;;;1.20;1.00;;;5.20;99.90;;;;;;4893886;29;20442;-80
2023/01/09 08:06:21;;;;;;;1.77;0.90;;;5.30;99.90;;;;;;4874770;29;20463;-79
2023/01/09 08:08:48;;;;;;;0.80;0.73;;;5.30;99.90;;;;;;4874063;29;20490;-80
2023/01/09 08:11:16;;;;;;;0.90;0.80;;;5.20;99.90;;;;;;4881193;29;20529;-84
2023/01/09 08:13:43;;;;;;;0.87;0.70;;;5.10;99.90;;;;;;4887042;29;20562;-85
2023/01/09 08:16:10;;;;;;;1.07;0.80;;;5.10;99.90;;;;;;4882453;29;20565;-84
2023/01/09 08:18:37;;;;;;;0.90;0.80;;;5.10;99.90;;;;;;4874770;29;20467;-85
2023/01/09 08:21:04;;;;;;;0.80;0.80;;;5.10;99.90;;;;;;4876961;29;20463;-84
2023/01/09 08:23:31;;;;;;;1.10;0.80;;;5.10;99.90;;;;;;4888060;29;20586;-89
2023/01/09 08:25:58;;;;;;;0.90;0.80;;;5.20;99.90;;;;;;4878688;29;20442;-88
2023/01/09 08:28:26;;;;;;;1.00;0.90;;;5.20;99.90;;;;;;4877702;29;20529;-90
2023/01/09 08:30:53;;;;;;;1.00;0.80;;;5.30;99.90;;;;;;4893120;29;20460;-85
2023/01/09 08:33:20;;;;;;;0.90;0.70;;;5.40;99.90;;;;;;4898221;29;20553;-87
2023/01/09 08:35:46;;;;;;;2.20;0.90;;;5.50;99.90;;;;;;4903100;29;20463;-81
2023/01/09 08:38:13;;;;;;;1.20;0.83;;;5.60;99.90;;;;;;4890458;29;20470;-88
2023/01/09 08:40:40;;;;;;;0.90;0.80;;;5.60;99.90;;;;;;4893309;29;20499;-84
2023/01/09 08:48:41;;;;;;;1.73;0.70;;;5.70;99.90;;;;;;4919884;29;20496;-87
2023/01/09 08:51:07;;;;;;;0.80;0.80;;;5.70;99.90;;;;;;4943890;29;20440;-84
2023/01/09 08:53:34;;;;;;;1.20;0.90;;;5.60;99.90;;;;;;4928812;29;20536;-84
2023/01/09 08:56:02;;;;;;;0.90;0.73;;;5.60;99.90;;;;;;4979198;23;20540;-88
2023/01/09 08:58:29;;;;;;;2.93;1.07;;;5.30;99.90;;;;;;4950322;29;20510;-91
2023/01/09 09:00:58;;;;;;;1.13;0.87;;;5.60;99.90;;;;;;4940900;29;20455;-70
2023/01/09 09:03:25;;;;;;;1.00;0.73;;;5.70;99.90;;;;;;4949079;29;20864;-80
2023/01/09 09:05:52;;;;;;;3.40;1.67;;;5.50;99.90;;;;;;4961710;28;20486;-81
2023/01/09 09:08:19;;;;;;;2.47;0.93;;;5.50;99.90;;;;;;4939878;29;20475;-89
2023/01/09 09:10:46;;;;;;;1.80;0.87;;;5.60;99.90;;;;;;4940086;29;20454;-82
2023/01/09 09:18:25;;;;;;;1.67;1.30;;;5.60;99.90;;;;;;5676146;23;20503;-92
2023/01/09 09:20:53;;;;;;;1.00;0.73;;;5.60;99.90;;;;;;4949932;29;20884;-89
2023/01/09 09:23:21;;;;;;;0.80;0.67;;;5.60;99.90;;;;;;4953915;28;20998;-70
2023/01/09 09:25:48;;;;;;;1.57;0.73;;;5.60;99.90;;;;;;4947607;28;20818;-91
2023/01/09 09:28:15;;;;;;;1.93;0.90;;;5.60;99.90;;;;;;4940066;29;20726;-93
2023/01/09 09:30:42;;;;;;;1.00;0.80;;;5.60;99.90;;;;;;4952103;28;20436;-87
2023/01/09 09:33:09;;;;;;;2.23;1.00;;;5.40;99.90;;;;;;4947852;29;20448;-89
2023/01/09 09:35:38;;;;;;;2.90;0.90;;;5.60;99.90;;;;;;4944595;29;20463;-93
2023/01/09 09:38:05;;;;;;;2.07;1.00;;;5.60;99.90;;;;;;4947877;29;20458;-91
2023/01/09 09:40:58;;;;;;;0.93;0.83;;;5.60;99.90;;;;;;4941428;29;20464;-92
2023/01/09 09:46:46;;;;;;;1.37;0.90;;;5.70;99.90;;;;;;4951491;23;20500;-93
2023/01/09 09:49:17;;;;;;;1.37;1.00;;;5.80;99.90;;;;;;4922925;29;20477;-91
2023/01/09 09:51:56;;;;;;;3.43;0.90;;;5.80;99.90;;;;;;4921084;29;20448;-92
2023/01/09 09:54:28;;;;;;;1.93;0.90;;;5.70;99.90;;;;;;4919819;29;20462;-89
2023/01/09 09:56:58;;;;;;;1.93;1.00;;;5.70;99.90;;;;;;4909430;29;20489;-89
2023/01/09 09:59:28;;;;;;;1.30;0.80;;;5.60;99.90;;;;;;4901426;29;20473;-91
2023/01/09 10:01:59;;;;;;;2.03;0.93;;;5.70;99.90;;;;;;4905871;29;21026;-87
2023/01/09 10:04:28;;;;;;;1.70;0.93;;;5.60;99.90;;;;;;4905618;29;20796;-91
2023/01/09 10:07:00;;;;;;;1.63;1.30;;;5.70;99.90;;;;;;4912194;29;20430;-89
2023/01/09 10:09:41;;;;;;;1.20;0.83;;;5.60;99.90;;;;;;4907421;29;20483;-92
2023/01/09 10:12:27;;;;;;;0.90;0.80;;;5.80;99.90;;;;;;4916118;29;20504;-91
2023/01/09 10:14:55;;;;;;;3.10;1.10;;;5.80;99.90;;;;;;4930149;29;20463;-88
2023/01/09 10:17:37;;;;;;;1.03;0.90;;;5.70;99.90;;;;;;4934600;29;20444;-88
2023/01/09 10:20:49;;;;;;;1.63;0.80;;;5.70;99.90;;;;;;4937017;29;20460;-90
2023/01/09 10:23:33;;;;;;;0.90;0.80;;;5.80;99.90;;;;;;4912067;29;20492;-90
2023/01/09 10:26:05;;;;;;;4.17;1.07;;;5.80;99.90;;;;;;4925085;29;20472;-86
2023/01/09 10:28:50;;;;;;;2.40;0.90;;;5.80;99.90;;;;;;4923584;29;20516;-90
2023/01/09 10:31:24;;;;;;;1.67;0.90;;;5.90;99.90;;;;;;4934817;29;20504;-83
2023/01/09 10:34:03;;;;;;;2.10;1.00;;;5.90;99.90;;;;;;4935670;29;20499;-89
2023/01/09 10:36:54;;;;;;;1.97;0.80;;;5.90;99.90;;;;;;4942152;29;20441;-86
2023/01/09 10:39:27;;;;;;;2.23;0.97;;;5.90;99.90;;;;;;4932250;29;20484;-91
2023/01/09 10:41:58;;;;;;;4.77;0.90;;;6.00;99.90;;;;;;4934056;29;20456;-89
2023/01/09 10:44:33;;;;;;;2.90;1.20;;;6.00;99.90;;;;;;4927014;29;20528;-87
2023/01/09 10:47:01;;;;;;;1.87;0.83;;;6.10;99.90;;;;;;4940669;29;20448;-87
2023/01/09 10:49:28;;;;;;;1.93;1.30;;;6.00;99.90;;;;;;4936654;29;20492;-91
2023/01/09 10:52:05;;;;;;;2.43;1.20;;;6.00;99.90;;;;;;4934328;29;20497;-90
2023/01/09 10:54:34;;;;;;;2.60;1.00;;;6.10;99.90;;;;;;4930231;29;20503;-90
2023/01/09 10:57:10;;;;;;;1.80;1.70;;;6.10;99.90;;;;;;4928904;29;20457;-92
2023/01/09 10:59:37;;;;;;;1.20;0.90;;;6.20;99.90;;;;;;4928823;29;20487;-94
2023/01/09 11:02:04;;;;;;;2.50;1.10;;;6.20;99.90;;;;;;4929872;29;20457;-91
2023/01/09 11:04:34;;;;;;;1.17;0.80;;;6.20;99.90;;;;;;4928200;29;20460;-92
2023/01/09 11:07:06;;;;;;;3.93;1.00;;;6.20;99.90;;;;;;4926504;29;20556;-91
2023/01/09 11:09:56;;;;;;;2.37;1.03;;;6.30;99.90;;;;;;4929370;29;20505;-90
2023/01/09 11:12:25;;;;;;;3.40;1.57;;;6.20;99.90;;;;;;4927573;29;20461;-89
2023/01/09 11:14:52;;;;;;;3.93;1.33;;;6.20;99.90;;;;;;4929849;29;20472;-92
2023/01/09 11:17:20;;;;;;;3.70;1.10;;;6.30;99.90;;;;;;4929173;29;20480;-89
2023/01/09 11:20:02;;;;;;;2.43;1.10;;;6.20;99.90;;;;;;4914902;29;20938;-85
2023/01/09 11:22:29;;;;;;;1.70;1.60;;;6.20;99.90;;;;;;4912046;29;20487;-89
2023/01/09 11:25:02;;;;;;;1.30;0.90;;;6.20;99.90;;;;;;4910867;29;20481;-91
2023/01/09 11:27:29;;;;;;;1.47;0.90;;;6.30;99.90;;;;;;4908910;29;20462;-90
2023/01/09 11:30:26;;;;;;;1.17;0.83;;;6.30;99.90;;;;;;4906071;29;20640;-94
2023/01/09 11:32:56;;;;;;;2.97;1.47;;;6.30;99.90;;;;;;4911176;29;20475;-91
2023/01/09 11:35:29;;;;;;;2.13;1.00;;;6.40;99.90;;;;;;4929786;29;20445;-89
2023/01/09 11:38:06;;;;;;;2.07;0.70;;;6.50;99.90;;;;;;4927040;29;20492;-90
2023/01/09 11:40:46;;;;;;;1.57;1.07;;;6.20;99.90;;;;;;4936584;29;20441;-93
2023/01/09 11:43:17;;;;;;;1.70;0.90;;;6.60;99.90;;;;;;4939763;29;20801;-92
2023/01/09 11:45:49;;;;;;;2.80;1.17;;;6.50;99.90;;;;;;4939114;29;20473;-94
2023/01/09 11:48:28;;;;;;;2.67;1.20;;;6.50;99.90;;;;;;4938281;29;20744;-90
2023/01/09 11:50:57;;;;;;;3.20;1.00;;;6.60;99.90;;;;;;4935191;29;20440;-91
2023/01/09 11:56:01;;;;;;;1.30;1.00;;;6.60;99.90;;;;;;4960927;23;20536;-92
2023/01/09 11:58:33;;;;;;;1.77;0.93;;;7.90;99.90;;;;;;4941065;29;20472;-92
2023/01/09 12:01:12;;;;;;;2.00;1.67;;;7.00;99.90;;;;;;5356869;23;20444;-92
2023/01/09 12:04:04;;;;;;;0.80;0.70;;;6.60;99.90;;;;;;4959225;28;20495;-91
2023/01/09 12:06:40;;;;;;;1.27;1.00;;;6.80;99.90;;;;;;4958812;28;20453;-94
2023/01/09 12:09:11;;;;;;;2.43;1.10;;;6.70;99.90;;;;;;4958778;28;20444;-93
2023/01/09 12:11:48;;;;;;;2.13;1.20;;;6.80;99.90;;;;;;4958329;28;20503;-94
2023/01/09 12:14:28;;;;;;;2.73;1.43;;;6.70;99.90;;;;;;4956223;29;20451;-93
2023/01/09 12:17:17;;;;;;;3.77;1.17;;;8.30;99.90;;;;;;4941989;29;20456;-92
2023/01/09 12:19:58;;;;;;;2.83;1.00;;;6.70;99.90;;;;;;4937396;29;20464;-91
2023/01/09 12:22:33;;;;;;;2.80;1.10;;;6.70;99.90;;;;;;4930365;29;20527;-90
2023/01/09 12:25:34;;;;;;;2.10;1.13;;;6.70;99.90;;;;;;4940237;29;20538;-92
2023/01/09 12:28:27;;;;;;;1.43;1.20;;;6.70;99.90;;;;;;4872968;29;20476;-93
2023/01/09 12:31:04;;;;;;;1.47;0.80;;;6.70;99.90;;;;;;4927132;29;20492;-91
2023/01/09 12:33:40;;;;;;;1.30;0.80;;;6.70;99.90;;;;;;4929728;29;20463;-84
2023/01/09 12:36:16;;;;;;;4.13;1.10;;;6.70;99.90;;;;;;4929243;29;20451;-83
2023/01/09 12:38:49;;;;;;;1.30;1.03;;;6.80;99.90;;;;;;4924915;29;20518;-82
2023/01/09 12:41:25;;;;;;;2.00;1.00;;;6.70;99.90;;;;;;4928112;29;20454;-77
2023/01/09 12:44:15;;;;;;;0.80;0.80;;;6.70;99.90;;;;;;4927471;29;20493;-76
2023/01/09 12:46:50;;;;;;;1.20;0.90;;;6.90;99.90;;;;;;4929702;29;20455;-82
2023/01/09 12:49:28;;;;;;;2.57;1.00;;;6.90;99.90;;;;;;4929715;29;20555;-77
2023/01/09 12:52:03;;;;;;;1.40;1.20;;;6.80;99.90;;;;;;4916649;29;20487;-81
2023/01/09 12:54:36;;;;;;;1.63;0.90;;;6.80;99.90;;;;;;4909989;29;20891;-79
2023/01/09 12:57:08;;;;;;;1.10;0.80;;;6.80;99.90;;;;;;4890448;29;20481;-77
2023/01/09 12:59:42;;;;;;;4.50;1.10;;;6.90;99.90;;;;;;4890844;29;20450;-78
2023/01/09 13:02:21;;;;;;;3.00;0.90;;;6.80;99.90;;;;;;4899721;29;20913;-77
2023/01/09 13:04:54;;;;;;;1.10;1.00;;;6.80;99.90;;;;;;4910093;29;20514;-76
2023/01/09 13:07:25;;;;;;;3.60;1.23;;;6.80;99.90;;;;;;4904143;29;20494;-83
2023/01/09 13:09:57;;;;;;;2.17;0.97;;;6.80;99.90;;;;;;4891485;29;20458;-80
2023/01/09 13:12:25;;;;;;;1.90;1.00;;;6.80;99.90;;;;;;4891690;29;20450;-76
2023/01/09 13:14:59;;;;;;;3.43;1.17;;;6.90;99.90;;;;;;4891493;29;20565;-85
2023/01/09 13:17:30;;;;;;;1.53;1.10;;;6.90;99.90;;;;;;4891971;29;20458;-81
2023/01/09 13:19:57;;;;;;;4.40;1.00;;;6.90;99.90;;;;;;4900581;29;20552;-77
2023/01/09 13:22:27;;;;;;;1.63;1.10;;;6.80;99.90;;;;;;4891799;29;20487;-81
2023/01/09 13:25:40;;;;;;;2.50;1.13;;;6.80;99.90;;;;;;4902179;29;20524;-78
2023/01/09 13:28:14;;;;;;;1.50;1.20;;;6.80;99.90;;;;;;4886208;29;20482;-76
2023/01/09 13:31:23;;;;;;;2.47;1.00;;;6.80;99.90;;;;;;4905756;29;20488;-81
2023/01/09 13:33:54;;;;;;;5.40;1.13;;;6.80;99.90;;;;;;4897559;29;20453;-81
2023/01/09 13:36:25;;;;;;;1.20;1.00;;;6.80;99.90;;;;;;4895053;29;20903;-81